Time;durP1;ratioP1;P1;durP2;ratioP2;P2;SDS_P1;SDS_P2;PMS_P1;PMS_P2;Temp;Humidity;BMP_temperature;BMP_pressure;BME280_temperature;BME280_humidity;BME280_pressure;Samples;Min_cycle;Max_cycle;Signal;HPM_P1;HPM_P2
2023/06/06 00:00:39;;;;;;;13.90;7.15;;;;;;;14.59;100.00;101652.78;6158303;23;20052;-83
2023/06/06 00:03:05;;;;;;;11.30;6.47;;;;;;;14.43;100.00;101642.16;6135098;23;20337;-84
2023/06/06 00:05:31;;;;;;;8.90;6.10;;;;;;;14.51;100.00;101655.28;6135089;23;20012;-84
2023/06/06 00:07:57;;;;;;;14.75;6.47;;;;;;;14.43;100.00;101644.03;6110902;23;20017;-85
2023/06/06 00:10:23;;;;;;;12.48;6.22;;;;;;;14.40;100.00;101645.16;6159836;23;20009;-85
2023/06/06 00:12:52;;;;;;;9.45;6.32;;;;;;;14.25;100.00;101639.06;6160344;23;20052;-84
2023/06/06 00:15:19;;;;;;;13.15;6.45;;;;;;;14.25;100.00;101647.31;6111723;23;20759;-84
2023/06/06 00:17:45;;;;;;;10.65;6.78;;;;;;;14.21;100.00;101647.69;6136669;23;20013;-84
2023/06/06 00:20:12;;;;;;;11.70;6.95;;;;;;;14.26;100.00;101648.19;6137441;23;20020;-84
2023/06/06 00:22:39;;;;;;;12.73;6.43;;;;;;;14.21;100.00;101656.81;6111340;23;20017;-85
2023/06/06 00:25:05;;;;;;;17.23;6.88;;;;;;;14.23;100.00;101657.59;6137225;23;20009;-86
2023/06/06 00:27:33;;;;;;;12.55;7.00;;;;;;;14.02;100.00;101648.28;6111669;23;20009;-85
2023/06/06 00:30:02;;;;;;;13.30;7.13;;;;;;;14.00;100.00;101633.78;6135308;23;20100;-84
2023/06/06 00:32:27;;;;;;;10.77;6.68;;;;;;;14.01;100.00;101650.19;6159379;23;20433;-86
2023/06/06 00:34:54;;;;;;;9.98;6.07;;;;;;;13.88;100.00;101644.78;6160752;23;20020;-86
2023/06/06 00:37:20;;;;;;;9.88;6.93;;;;;;;13.90;100.00;101648.28;6135887;23;20433;-86
2023/06/06 00:39:45;;;;;;;13.10;7.00;;;;;;;13.76;100.00;101643.91;6160303;23;20028;-85
2023/06/06 00:42:11;;;;;;;11.13;6.70;;;;;;;13.88;100.00;101655.78;6159717;23;20013;-86
2023/06/06 00:44:36;;;;;;;14.10;7.22;;;;;;;13.75;100.00;101647.63;6111031;23;20100;-85
2023/06/06 00:47:02;;;;;;;11.38;7.53;;;;;;;13.84;100.00;101668.06;6111781;23;20015;-85
2023/06/06 00:49:28;;;;;;;11.20;7.32;;;;;;;13.70;100.00;101643.53;6111190;23;20009;-86
2023/06/06 00:51:54;;;;;;;13.50;7.25;;;;;;;13.74;100.00;101661.53;6160058;23;20005;-86
2023/06/06 00:54:20;;;;;;;13.07;7.50;;;;;;;13.76;100.00;101665.06;6160385;23;20013;-85
2023/06/06 00:56:47;;;;;;;11.45;6.97;;;;;;;13.71;100.00;101653.53;6160836;23;20492;-85
2023/06/06 00:59:13;;;;;;;12.73;7.20;;;;;;;13.51;100.00;101658.75;6136970;23;20029;-84
2023/06/06 01:01:39;;;;;;;11.45;7.60;;;;;;;13.39;100.00;101648.69;6115943;23;20048;-87
2023/06/06 01:04:09;;;;;;;10.43;6.88;;;;;;;13.49;100.00;101654.34;6142089;23;20013;-88
2023/06/06 01:06:37;;;;;;;14.65;6.72;;;;;;;13.51;100.00;101657.84;6144409;23;20013;-88
2023/06/06 01:09:15;;;;;;;12.32;7.10;;;;;;;13.40;100.00;101651.31;6112808;23;20013;-87
2023/06/06 01:11:51;;;;;;;16.77;7.88;;;;;;;13.51;100.00;101667.00;6113523;23;20036;-86
2023/06/06 01:14:35;;;;;;;17.33;7.68;;;;;;;13.33;100.00;101661.06;6144010;23;20020;-88
2023/06/06 01:17:02;;;;;;;18.40;7.63;;;;;;;13.34;100.00;101664.69;6143539;23;20073;-87
2023/06/06 01:19:30;;;;;;;11.00;6.95;;;;;;;13.26;100.00;101653.38;6140154;23;20306;-89
2023/06/06 01:21:57;;;;;;;16.58;7.88;;;;;;;13.32;100.00;101662.03;6118573;23;20017;-89
2023/06/06 01:24:24;;;;;;;18.42;7.43;;;;;;;13.28;100.00;101660.50;6127145;23;20008;-85
2023/06/06 01:26:50;;;;;;;10.68;6.68;;;;;;;13.19;100.00;101659.34;6153302;23;19997;-86
2023/06/06 01:29:15;;;;;;;11.60;7.30;;;;;;;13.16;100.00;101640.31;6147216;23;20016;-86
2023/06/06 01:31:45;;;;;;;14.85;8.70;;;;;;;13.21;100.00;101657.34;6165783;23;20306;-86
2023/06/06 01:34:50;;;;;;;16.60;7.68;;;;;;;13.14;100.00;101646.94;6174381;23;20013;-86
2023/06/06 01:37:45;;;;;;;14.48;7.25;;;;;;;13.12;100.00;101662.66;6081649;23;20009;-87
2023/06/06 01:40:13;;;;;;;15.02;7.20;;;;;;;13.06;100.00;101658.53;6152034;23;20004;-86
2023/06/06 01:42:43;;;;;;;11.57;6.90;;;;;;;13.01;100.00;101669.88;6174847;23;20112;-84
2023/06/06 01:45:12;;;;;;;13.10;7.05;;;;;;;12.97;100.00;101660.13;6162420;23;20016;-85
2023/06/06 01:47:38;;;;;;;19.88;8.38;;;;;;;12.93;100.00;101649.47;6162952;23;20013;-88
2023/06/06 01:50:07;;;;;;;11.77;7.72;;;;;;;12.86;100.00;101657.31;6162186;23;20311;-88
2023/06/06 01:52:36;;;;;;;14.10;6.93;;;;;;;12.81;100.00;101646.66;6138772;23;20163;-88
2023/06/06 01:55:03;;;;;;;14.15;7.25;;;;;;;12.86;100.00;101665.56;6113563;23;20009;-84
2023/06/06 01:57:29;;;;;;;12.90;7.00;;;;;;;12.83;100.00;101665.78;6162858;23;20120;-86
2023/06/06 01:59:55;;;;;;;12.82;7.32;;;;;;;12.81;100.00;101663.16;6162834;23;20028;-87
2023/06/06 02:02:21;;;;;;;14.90;7.93;;;;;;;12.65;100.00;101640.56;6113623;23;20021;-88
2023/06/06 02:04:48;;;;;;;13.98;8.10;;;;;;;12.67;100.00;101647.72;6139977;23;20009;-87
2023/06/06 02:07:15;;;;;;;13.57;7.30;;;;;;;12.65;100.00;101660.69;6143016;23;20016;-83
2023/06/06 02:09:44;;;;;;;12.95;7.32;;;;;;;12.68;100.00;101654.09;6143029;23;20020;-90
2023/06/06 02:12:10;;;;;;;13.82;7.25;;;;;;;12.58;100.00;101653.91;6118889;23;20072;-88
2023/06/06 02:14:36;;;;;;;11.30;7.45;;;;;;;12.47;100.00;101637.34;6169022;23;20388;-90
2023/06/06 02:17:03;;;;;;;15.88;7.05;;;;;;;12.65;100.00;101668.06;6169650;23;20005;-85
2023/06/06 02:19:30;;;;;;;13.85;6.85;;;;;;;12.44;100.00;101657.66;6205892;23;20076;-84
2023/06/06 02:21:56;;;;;;;14.30;7.03;;;;;;;12.40;100.00;101650.66;6133001;23;20450;-85
2023/06/06 02:24:24;;;;;;;11.30;7.85;;;;;;;12.27;100.00;101660.78;6158030;23;20005;-86
2023/06/06 02:26:53;;;;;;;11.80;7.13;;;;;;;12.34;100.00;101659.34;6116799;23;20013;-88
2023/06/06 02:29:23;;;;;;;12.48;7.07;;;;;;;12.33;100.00;101654.84;6142599;23;20016;-84
2023/06/06 02:31:50;;;;;;;11.07;7.40;;;;;;;12.36;100.00;101653.72;6173702;23;20461;-88
2023/06/06 02:34:15;;;;;;;11.63;7.10;;;;;;;12.24;100.00;101658.28;6176814;23;19989;-88
2023/06/06 02:36:41;;;;;;;11.15;7.55;;;;;;;12.28;100.00;101652.44;6152776;23;20377;-86
2023/06/06 02:39:08;;;;;;;12.25;7.75;;;;;;;12.27;100.00;101663.53;6133088;23;20024;-88
2023/06/06 02:41:34;;;;;;;11.25;6.65;;;;;;;12.10;100.00;101648.28;6182265;23;20040;-88
2023/06/06 02:44:00;;;;;;;15.13;7.07;;;;;;;12.08;100.00;101650.28;6178855;23;20005;-85
2023/06/06 02:46:25;;;;;;;10.45;7.28;;;;;;;12.00;100.00;101639.84;6146145;23;20384;-86
2023/06/06 02:48:51;;;;;;;10.57;6.90;;;;;;;12.02;100.00;101634.25;6091763;23;20017;-87
2023/06/06 02:51:16;;;;;;;12.20;6.97;;;;;;;12.01;100.00;101652.59;6190827;23;20032;-88
2023/06/06 02:53:43;;;;;;;11.95;7.43;;;;;;;12.10;100.00;101665.66;6145073;23;20447;-88
2023/06/06 02:56:10;;;;;;;12.32;6.88;;;;;;;11.78;100.00;101627.63;6146897;23;20013;-86
2023/06/06 02:58:36;;;;;;;16.52;7.15;;;;;;;11.89;100.00;101642.47;6175434;23;20013;-86
2023/06/06 03:01:03;;;;;;;12.43;6.90;;;;;;;11.90;100.00;101650.59;6145352;23;20040;-86
2023/06/06 03:03:29;;;;;;;14.38;7.43;;;;;;;12.04;100.00;101668.84;6120309;23;20016;-84
2023/06/06 03:05:56;;;;;;;11.77;6.38;;;;;;;11.82;100.00;101633.78;6120778;23;20013;-86
2023/06/06 03:08:22;;;;;;;19.85;6.82;;;;;;;11.81;100.00;101653.13;6153409;23;20009;-87
2023/06/06 03:10:49;;;;;;;11.77;7.00;;;;;;;11.88;100.00;101668.16;6160791;23;20009;-86
2023/06/06 03:13:16;;;;;;;13.88;7.05;;;;;;;11.86;100.00;101660.03;6112549;23;20020;-86
2023/06/06 03:15:45;;;;;;;14.00;6.93;;;;;;;11.86;100.00;101667.38;6160496;23;20005;-85
2023/06/06 03:18:11;;;;;;;11.23;6.82;;;;;;;11.69;100.00;101643.88;6116990;23;20060;-83
2023/06/06 03:20:41;;;;;;;14.55;7.57;;;;;;;11.60;100.00;101645.41;6133249;23;20009;-87
2023/06/06 03:23:09;;;;;;;13.98;7.70;;;;;;;11.72;100.00;101672.00;6181982;23;20058;-87
2023/06/06 03:28:10;;;;;;;15.38;7.30;;;;;;;11.75;100.00;101669.00;6190545;23;20024;-84
2023/06/06 03:35:46;;;;;;;20.70;6.95;;;;;;;11.72;100.00;101672.00;6178735;23;20029;-87
2023/06/06 03:38:12;;;;;;;14.60;6.97;;;;;;;11.67;100.00;101667.81;6148688;23;20033;-87
2023/06/06 03:40:37;;;;;;;10.77;6.75;;;;;;;11.69;100.00;101654.84;6163324;23;20008;-86
2023/06/06 03:45:38;;;;;;;14.05;6.38;;;;;;;11.64;100.00;101663.44;6187651;23;20035;-87
2023/06/06 03:50:39;;;;;;;12.43;6.90;;;;;;;11.48;100.00;101647.19;6198866;23;20047;-83
2023/06/06 03:53:04;;;;;;;15.65;6.88;;;;;;;11.46;100.00;101624.47;6126872;23;20029;-84
2023/06/06 03:55:34;;;;;;;11.63;7.40;;;;;;;11.56;100.00;101666.72;6062048;23;20091;-85
2023/06/06 03:58:01;;;;;;;14.38;7.07;;;;;;;11.71;100.00;101664.75;6173847;23;20027;-87
2023/06/06 04:00:27;;;;;;;16.38;6.72;;;;;;;11.63;100.00;101644.34;6154692;23;20009;-88
2023/06/06 04:02:52;;;;;;;12.80;6.50;;;;;;;11.50;100.00;101658.03;6131387;23;19993;-84
2023/06/06 04:05:18;;;;;;;10.98;6.55;;;;;;;11.75;100.00;101674.50;6201970;23;20110;-85
2023/06/06 04:07:44;;;;;;;12.68;7.03;;;;;;;11.68;100.00;101673.19;6149465;23;20016;-84
2023/06/06 04:10:10;;;;;;;12.30;7.00;;;;;;;11.83;100.00;101675.84;6114534;23;20013;-84
2023/06/06 04:12:35;;;;;;;12.35;6.93;;;;;;;11.77;100.00;101674.38;6162824;23;20017;-83
2023/06/06 04:15:02;;;;;;;11.65;6.88;;;;;;;11.83;100.00;101679.44;6142561;23;20013;-84
2023/06/06 04:17:27;;;;;;;14.98;6.63;;;;;;;11.79;100.00;101669.69;6158416;23;19993;-84
2023/06/06 04:22:28;;;;;;;20.52;7.03;;;;;;;11.85;100.00;101682.09;6184471;23;20021;-84
2023/06/06 04:24:53;;;;;;;9.50;6.78;;;;;;;11.66;100.00;101663.28;6166199;23;20513;-81
2023/06/06 04:27:19;;;;;;;20.55;7.68;;;;;;;11.87;100.00;101689.25;6119981;23;20021;-82
2023/06/06 04:32:20;;;;;;;9.75;6.35;;;;;;;11.92;100.00;101688.91;6159377;23;20009;-84
2023/06/06 04:37:22;;;;;;;12.68;6.45;;;;;;;11.91;100.00;101674.31;6147309;23;20060;-82
2023/06/06 04:39:52;;;;;;;13.95;7.05;;;;;;;11.98;100.00;101684.88;6120306;23;20021;-84
2023/06/06 04:42:19;;;;;;;16.52;6.85;;;;;;;11.69;100.00;101654.84;6141183;23;20440;-84
2023/06/06 04:44:46;;;;;;;13.55;7.07;;;;;;;11.89;100.00;101692.75;6123024;23;20543;-83
2023/06/06 04:52:24;;;;;;;13.45;7.60;;;;;;;12.02;100.00;101683.66;6186370;23;20087;-88
2023/06/06 04:54:51;;;;;;;11.15;6.85;;;;;;;11.97;100.00;101664.78;6146414;23;20009;-89
2023/06/06 04:57:17;;;;;;;10.32;6.63;;;;;;;12.04;100.00;101679.81;6122921;23;20015;-88
2023/06/06 04:59:50;;;;;;;9.50;6.40;;;;;;;11.97;100.00;101659.31;6124318;23;20060;-89
2023/06/06 05:02:20;;;;;;;14.35;6.70;;;;;;;12.02;100.00;101658.94;6120809;23;20013;-88
2023/06/06 05:04:52;;;;;;;10.95;6.18;;;;;;;12.15;100.00;101673.56;6146012;23;20016;-89
2023/06/06 05:07:18;;;;;;;15.48;7.05;;;;;;;12.20;100.00;101664.97;6171860;23;20353;-88
2023/06/06 05:09:43;;;;;;;12.60;6.15;;;;;;;12.21;100.00;101674.97;6122039;23;20033;-88
2023/06/06 05:12:09;;;;;;;12.43;6.80;;;;;;;12.18;100.00;101659.59;6146156;23;20009;-87
2023/06/06 05:14:35;;;;;;;10.60;6.05;;;;;;;12.38;100.00;101668.22;6122437;23;20100;-88
2023/06/06 05:17:01;;;;;;;12.63;6.80;;;;;;;12.31;100.00;101654.97;6122095;23;20338;-89
2023/06/06 05:19:26;;;;;;;13.40;6.70;;;;;;;12.65;100.00;101671.66;6098933;23;20016;-89
2023/06/06 05:21:52;;;;;;;9.27;6.35;;;;;;;12.74;100.00;101671.97;6122078;23;20017;-86
2023/06/06 05:24:18;;;;;;;14.55;6.43;;;;;;;12.99;100.00;101682.00;6120763;23;20012;-88
2023/06/06 05:26:43;;;;;;;14.52;6.95;;;;;;;13.09;100.00;101690.44;6168941;23;20429;-89
2023/06/06 05:29:09;;;;;;;12.00;6.15;;;;;;;13.17;100.00;101691.59;6195400;23;20005;-88
2023/06/06 05:31:35;;;;;;;14.48;6.40;;;;;;;13.51;100.00;101685.34;6140774;23;20337;-88
2023/06/06 05:34:01;;;;;;;8.77;5.95;;;;;;;13.50;100.00;101681.75;6117047;23;20016;-89
2023/06/06 05:36:27;;;;;;;9.80;6.30;;;;;;;13.70;100.00;101688.41;6141188;23;20078;-89
2023/06/06 05:38:53;;;;;;;11.80;6.28;;;;;;;13.45;100.00;101674.84;6123978;23;20017;-87
2023/06/06 05:41:20;;;;;;;12.48;6.45;;;;;;;13.99;100.00;101685.22;6106284;23;20020;-89
2023/06/06 05:43:45;;;;;;;12.65;6.00;;;;;;;14.08;100.00;101678.09;6135228;23;20033;-87
2023/06/06 05:46:11;;;;;;;9.15;6.10;;;;;;;14.38;100.00;101685.75;6155074;23;19997;-87
2023/06/06 05:48:37;;;;;;;11.85;6.70;;;;;;;14.76;100.00;101692.75;6153570;23;20020;-85
2023/06/06 05:51:03;;;;;;;7.57;5.75;;;;;;;15.11;100.00;101694.41;6142455;23;20013;-81
2023/06/06 05:53:28;;;;;;;8.63;6.03;;;;;;;15.10;100.00;101703.69;6126188;23;20554;-84
2023/06/06 05:55:54;;;;;;;8.05;5.55;;;;;;;15.04;100.00;101701.47;6152917;23;20009;-81
2023/06/06 05:58:20;;;;;;;10.38;6.40;;;;;;;14.93;100.00;101695.97;6156985;23;20009;-87
2023/06/06 06:00:45;;;;;;;10.50;6.00;;;;;;;15.27;100.00;101705.03;6186410;23;20000;-86
2023/06/06 06:03:12;;;;;;;10.65;5.82;;;;;;;15.58;100.00;101697.72;6127448;23;20007;-88
2023/06/06 06:05:37;;;;;;;10.77;5.80;;;;;;;15.42;100.00;101694.53;6098166;23;20060;-86
2023/06/06 06:08:04;;;;;;;10.50;5.88;;;;;;;15.59;100.00;101698.59;6170388;23;20385;-88
2023/06/06 06:10:38;;;;;;;13.02;5.90;;;;;;;15.75;100.00;101700.91;6145475;23;20009;-87
2023/06/06 06:13:05;;;;;;;7.95;5.78;;;;;;;15.89;100.00;101706.13;6174213;23;20036;-88
2023/06/06 06:15:32;;;;;;;11.10;5.78;;;;;;;16.60;100.00;101707.22;6154080;23;20009;-88
2023/06/06 06:17:58;;;;;;;11.23;5.93;;;;;;;16.29;100.00;101694.25;6142989;23;20009;-83
2023/06/06 06:20:23;;;;;;;10.15;5.43;;;;;;;16.64;100.00;101690.19;6190926;23;20440;-84
2023/06/06 06:22:50;;;;;;;10.60;5.85;;;;;;;16.59;100.00;101697.16;6147334;23;20005;-82
2023/06/06 06:25:19;;;;;;;12.68;6.20;;;;;;;16.82;100.00;101695.94;6093825;23;20028;-79
2023/06/06 06:30:21;;;;;;;12.45;6.20;;;;;;;16.78;100.00;101690.81;6088300;23;20273;-76
2023/06/06 06:32:46;;;;;;;8.77;5.68;;;;;;;16.90;100.00;101696.13;6140433;23;20033;-80
2023/06/06 06:35:12;;;;;;;8.70;5.82;;;;;;;16.94;100.00;101715.19;6123280;23;20024;-80
2023/06/06 06:37:39;;;;;;;7.30;5.35;;;;;;;17.47;100.00;101720.34;6122735;23;20076;-82
2023/06/06 06:42:44;;;;;;;9.02;5.72;;;;;;;17.40;100.00;101706.22;6186623;23;20338;-84
2023/06/06 06:45:12;;;;;;;13.02;6.38;;;;;;;18.16;100.00;101718.41;6143053;23;20013;-83
2023/06/06 06:47:38;;;;;;;9.38;6.13;;;;;;;18.43;98.44;101711.16;6114033;23;20016;-84
2023/06/06 06:52:38;;;;;;;11.05;6.40;;;;;;;18.11;99.63;101716.06;6108258;23;20026;-78
2023/06/06 06:55:04;;;;;;;17.85;6.70;;;;;;;18.29;99.04;101715.31;6059151;23;20057;-80
2023/06/06 07:00:18;;;;;;;9.80;6.45;;;;;;;18.41;96.77;101708.53;6197713;23;20025;-80
2023/06/06 07:02:44;;;;;;;13.63;6.38;;;;;;;19.07;93.53;101731.59;6179488;23;20012;-81
2023/06/06 07:05:10;;;;;;;9.88;6.10;;;;;;;19.03;91.46;101711.59;6138353;23;20286;-81
2023/06/06 07:07:43;;;;;;;11.73;6.65;;;;;;;19.00;93.30;101708.28;6152537;23;20009;-79
2023/06/06 07:10:09;;;;;;;12.32;6.30;;;;;;;19.29;90.47;101717.28;6127211;23;20017;-83
2023/06/06 07:12:34;;;;;;;13.95;6.60;;;;;;;19.89;87.31;101713.00;6153501;23;20001;-82
2023/06/06 07:15:00;;;;;;;12.93;6.88;;;;;;;19.37;90.39;101718.41;6152587;23;20441;-82
2023/06/06 07:17:26;;;;;;;13.88;6.20;;;;;;;19.49;89.24;101707.91;6153086;23;20037;-80
2023/06/06 07:19:51;;;;;;;10.40;5.93;;;;;;;19.44;91.40;101716.72;6127884;23;20013;-79
2023/06/06 07:22:17;;;;;;;12.10;6.25;;;;;;;19.44;89.99;101711.16;6131333;23;20024;-81
2023/06/06 07:24:43;;;;;;;11.15;6.57;;;;;;;19.51;90.21;101711.41;6172649;23;20064;-80
2023/06/06 07:34:56;;;;;;;11.25;6.22;;;;;;;20.44;82.01;101694.22;6153272;23;20013;-82
2023/06/06 07:42:32;;;;;;;14.15;7.78;;;;;;;20.45;81.69;101687.63;6090911;23;20035;-82
2023/06/06 07:44:58;;;;;;;11.60;7.10;;;;;;;20.81;81.56;101701.38;6106282;23;20097;-81
2023/06/06 07:50:02;;;;;;;13.23;7.80;;;;;;;21.11;79.10;101700.78;6070235;23;20331;-83
2023/06/06 08:03:07;;;;;;;13.00;7.28;;;;;;;21.61;76.71;101698.97;6067627;23;20454;31
2023/06/06 08:08:21;;;;;;;11.30;7.55;;;;;;;21.56;75.35;101703.31;6174632;23;19920;-82
2023/06/06 08:10:46;;;;;;;15.57;7.85;;;;;;;21.34;77.08;101683.41;6184270;23;20013;-80
2023/06/06 08:13:11;;;;;;;9.32;6.90;;;;;;;21.57;74.71;101702.28;6109048;23;20025;-81
2023/06/06 08:15:37;;;;;;;13.13;7.13;;;;;;;21.46;76.21;101706.22;6134446;23;20500;-80
2023/06/06 08:18:03;;;;;;;8.95;6.70;;;;;;;21.39;77.51;101706.06;6160460;23;20029;-83
2023/06/06 08:20:28;;;;;;;11.20;6.63;;;;;;;21.89;74.49;101694.94;6175401;23;20021;-83
2023/06/06 08:22:53;;;;;;;14.48;7.82;;;;;;;21.92;72.30;101689.88;6120195;23;20017;-79
2023/06/06 08:25:19;;;;;;;12.32;6.60;;;;;;;21.96;73.68;101696.88;6153814;23;20050;-78
2023/06/06 08:27:45;;;;;;;12.15;7.60;;;;;;;22.35;71.99;101695.22;6154321;23;20036;-80
2023/06/06 08:30:11;;;;;;;15.48;7.80;;;;;;;22.61;70.48;101686.59;6156947;23;20001;-82
2023/06/06 08:32:37;;;;;;;13.05;6.93;;;;;;;22.23;72.26;101689.13;6088575;23;20021;-78
2023/06/06 08:35:03;;;;;;;13.93;7.68;;;;;;;21.99;72.97;101687.28;6128710;23;20283;-80
2023/06/06 08:37:30;;;;;;;12.90;7.60;;;;;;;22.56;70.96;101689.97;6065190;23;20049;-79
2023/06/06 08:39:55;;;;;;;10.05;6.35;;;;;;;22.44;69.94;101682.16;6175907;23;20013;-81
2023/06/06 08:42:22;;;;;;;12.95;7.65;;;;;;;22.19;71.88;101676.59;6109138;23;20006;-81
2023/06/06 08:44:49;;;;;;;9.48;6.43;;;;;;;22.86;68.53;101689.31;6101127;23;20033;-81
2023/06/06 08:47:16;;;;;;;14.32;7.43;;;;;;;21.95;73.16;101677.53;6097882;23;20017;-80
2023/06/06 08:49:43;;;;;;;13.50;7.55;;;;;;;22.78;69.51;101693.00;6106713;23;20104;-80
2023/06/06 08:59:53;;;;;;;17.80;7.43;;;;;;;23.84;65.18;101669.09;6166248;23;20013;-84
2023/06/06 09:02:19;;;;;;;14.10;6.68;;;;;;;23.84;62.98;101671.88;6078104;23;20026;-80
2023/06/06 09:07:20;;;;;;;15.07;7.07;;;;;;;23.17;64.81;101677.28;6191335;23;20025;-82
2023/06/06 09:09:48;;;;;;;15.98;7.10;;;;;;;23.17;66.54;101696.81;6193776;23;20088;-84
2023/06/06 09:12:14;;;;;;;8.63;6.40;;;;;;;24.11;63.02;101699.44;6148351;23;20013;-82
2023/06/06 09:22:25;;;;;;;10.02;6.18;;;;;;;23.41;63.01;101687.41;6138219;23;20020;-80
2023/06/06 09:24:56;;;;;;;10.90;6.75;;;;;;;23.90;61.46;101687.03;6180192;23;20028;-77
2023/06/06 09:27:29;;;;;;;14.27;6.35;;;;;;;23.39;64.69;101684.81;6192872;23;20021;-78
2023/06/06 09:29:54;;;;;;;13.63;6.60;;;;;;;23.55;64.35;101682.97;6131963;23;20020;-79
2023/06/06 09:32:28;;;;;;;12.32;6.35;;;;;;;23.69;64.22;101682.13;6159669;23;20013;-77
2023/06/06 09:34:54;;;;;;;10.70;6.90;;;;;;;23.89;63.68;101679.72;6156147;23;19993;-79
2023/06/06 09:37:23;;;;;;;10.15;6.72;;;;;;;24.15;61.48;101673.69;6209600;23;20017;-78
2023/06/06 09:40:15;;;;;;;8.60;6.85;;;;;;;23.78;64.14;101678.19;6150988;23;20014;-79
2023/06/06 09:42:48;;;;;;;15.90;5.68;;;;;;;24.43;61.08;101673.00;6175686;23;20005;-78
2023/06/06 09:45:19;;;;;;;12.38;6.28;;;;;;;24.15;59.86;101656.00;6177823;23;20018;-78
2023/06/06 09:47:48;;;;;;;19.85;7.00;;;;;;;24.22;60.87;101682.19;6181264;23;20005;-79
2023/06/06 09:50:16;;;;;;;12.10;6.72;;;;;;;24.19;61.04;101671.38;6154183;23;20024;-79
2023/06/06 09:52:42;;;;;;;11.20;6.60;;;;;;;24.29;61.89;101671.94;6151924;23;20018;-78
2023/06/06 09:55:09;;;;;;;10.70;6.47;;;;;;;24.65;59.74;101676.78;6152681;23;20012;-79
2023/06/06 09:57:37;;;;;;;9.98;6.60;;;;;;;24.57;61.11;101662.91;6153058;23;20024;-78
2023/06/06 10:00:10;;;;;;;8.38;6.30;;;;;;;24.37;59.81;101660.66;6153536;23;19993;-80
2023/06/06 10:02:42;;;;;;;10.63;7.45;;;;;;;24.20;59.90;101673.09;6173843;23;20001;-78
2023/06/06 10:05:14;;;;;;;11.95;6.43;;;;;;;24.08;64.07;101658.69;6173208;23;20057;-78
2023/06/06 10:07:47;;;;;;;12.77;6.68;;;;;;;24.81;59.79;101661.72;6172080;23;20010;-78
2023/06/06 10:10:15;;;;;;;7.85;6.25;;;;;;;25.02;60.21;101663.69;6171538;23;20048;-78
2023/06/06 10:12:43;;;;;;;14.02;6.53;;;;;;;25.21;59.94;101670.56;6145925;23;20016;-80
2023/06/06 10:15:11;;;;;;;8.88;6.32;;;;;;;24.80;59.26;101662.75;6132197;23;20021;-79
2023/06/06 10:17:41;;;;;;;15.65;6.03;;;;;;;25.11;59.70;101670.91;6127990;23;20020;-79
2023/06/06 10:20:17;;;;;;;11.02;6.03;;;;;;;25.79;58.08;101666.84;6153696;23;20471;-79
2023/06/06 10:22:42;;;;;;;10.90;6.28;;;;;;;25.21;58.13;101655.69;6162387;23;20002;-84
2023/06/06 10:25:12;;;;;;;9.88;7.22;;;;;;;25.04;59.04;101658.75;6111190;23;20081;-81
2023/06/06 10:27:52;;;;;;;8.30;6.35;;;;;;;25.17;57.20;101660.84;6166476;23;20029;-82
2023/06/06 10:30:28;;;;;;;9.93;6.50;;;;;;;25.21;57.93;101648.16;6107813;23;20013;-82
2023/06/06 10:33:12;;;;;;;12.13;5.82;;;;;;;25.96;54.59;101661.88;6160635;23;20013;-83
2023/06/06 10:35:40;;;;;;;12.00;6.40;;;;;;;25.89;54.84;101656.13;6135210;23;20032;-81
2023/06/06 10:38:09;;;;;;;13.27;6.53;;;;;;;25.66;54.91;101659.19;6135485;23;20009;-79
2023/06/06 10:41:00;;;;;;;11.50;5.78;;;;;;;25.36;59.12;101647.25;6137868;23;20032;-81
2023/06/06 10:43:34;;;;;;;9.40;6.10;;;;;;;25.38;58.65;101659.13;6158287;23;20021;-82
2023/06/06 10:46:04;;;;;;;10.75;5.65;;;;;;;25.54;56.46;101656.06;6153904;23;20096;-83
2023/06/06 10:48:41;;;;;;;10.07;6.82;;;;;;;25.59;55.82;101655.47;6158229;23;20060;-82
2023/06/06 10:51:08;;;;;;;9.40;6.47;;;;;;;25.48;55.64;101648.44;6167645;23;20005;-82
2023/06/06 10:53:33;;;;;;;34.13;7.28;;;;;;;25.80;57.42;101649.81;6147557;23;20005;-81
2023/06/06 10:56:06;;;;;;;14.43;6.65;;;;;;;26.17;54.61;101655.28;6176033;23;20021;-82
2023/06/06 10:58:34;;;;;;;18.25;6.68;;;;;;;25.90;55.26;101649.47;6125426;23;19997;-82
2023/06/06 11:01:04;;;;;;;9.27;5.55;;;;;;;26.16;55.11;101646.00;6177253;23;20018;-82
2023/06/06 11:03:37;;;;;;;16.83;6.72;;;;;;;25.84;54.11;101636.25;6165857;23;20023;-81
2023/06/06 11:06:08;;;;;;;14.23;6.72;;;;;;;25.79;56.19;101638.78;6168552;23;19993;-80
2023/06/06 11:08:34;;;;;;;9.18;5.88;;;;;;;26.02;54.75;101641.38;6151051;23;19998;-81
2023/06/06 11:11:29;;;;;;;7.78;4.88;;;;;;;26.03;53.28;101638.38;6125603;23;19998;-81
2023/06/06 11:14:03;;;;;;;7.05;4.70;;;;;;;26.28;53.80;101637.88;6123193;23;20104;-81
2023/06/06 11:16:31;;;;;;;9.52;5.50;;;;;;;26.36;54.28;101620.84;6146695;23;20018;-82
2023/06/06 11:19:02;;;;;;;10.70;5.68;;;;;;;26.33;53.15;101635.31;6150150;23;20087;-83
2023/06/06 11:21:29;;;;;;;7.63;5.40;;;;;;;26.06;53.22;101639.91;6145753;23;20017;-83
2023/06/06 11:23:56;;;;;;;10.68;5.55;;;;;;;26.26;52.03;101633.56;6137146;23;20024;-84
2023/06/06 11:26:22;;;;;;;7.55;5.18;;;;;;;26.32;52.67;101629.94;6138903;23;20014;-83
2023/06/06 11:28:49;;;;;;;8.10;4.45;;;;;;;26.52;54.69;101633.69;6143672;23;20092;-84
2023/06/06 11:31:20;;;;;;;10.25;5.80;;;;;;;26.27;52.03;101626.84;6120472;23;20018;-83
2023/06/06 11:33:45;;;;;;;9.77;5.45;;;;;;;26.07;52.38;101621.97;6147217;23;20041;-84
2023/06/06 11:36:11;;;;;;;9.75;4.85;;;;;;;26.20;51.66;101627.69;6168378;23;20053;-84
2023/06/06 11:38:41;;;;;;;11.77;5.30;;;;;;;26.13;51.93;101614.69;6119567;23;20065;-85
2023/06/06 11:41:06;;;;;;;8.52;5.40;;;;;;;25.94;53.38;101608.72;6109065;23;20386;-82
2023/06/06 11:43:32;;;;;;;8.57;5.07;;;;;;;26.52;51.28;101621.59;6160784;23;20025;-83
2023/06/06 11:46:05;;;;;;;9.10;4.70;;;;;;;26.03;52.11;101620.66;6130966;23;20737;-83
2023/06/06 11:48:30;;;;;;;13.15;4.88;;;;;;;26.23;51.92;101607.59;6106987;23;20017;-83
2023/06/06 11:50:56;;;;;;;7.03;4.45;;;;;;;26.19;52.22;101619.47;6152680;23;20032;-87
2023/06/06 11:53:33;;;;;;;6.07;4.50;;;;;;;26.00;50.58;101612.66;6127275;23;20020;-86
2023/06/06 11:55:59;;;;;;;7.88;4.60;;;;;;;25.86;51.35;101615.34;6170713;23;20025;-85
2023/06/06 11:58:26;;;;;;;10.25;5.35;;;;;;;25.95;52.11;101613.22;6152110;23;20020;-85
2023/06/06 12:00:55;;;;;;;6.28;4.53;;;;;;;25.91;52.15;101611.03;6146565;23;19993;-85
2023/06/06 12:03:21;;;;;;;7.63;4.35;;;;;;;26.15;50.44;101619.00;6148879;23;20349;-85
2023/06/06 12:06:00;;;;;;;9.63;5.03;;;;;;;25.95;51.55;101612.38;6172455;23;20008;-84
2023/06/06 12:08:26;;;;;;;10.30;4.63;;;;;;;26.12;52.19;101597.00;6175231;23;20010;-85
2023/06/06 12:10:52;;;;;;;7.10;4.97;;;;;;;26.48;51.70;101604.31;6118651;23;20016;-85
2023/06/06 12:13:33;;;;;;;11.57;4.75;;;;;;;26.41;51.10;101612.66;6131081;23;20005;-85
2023/06/06 12:15:59;;;;;;;8.25;4.57;;;;;;;26.03;50.00;101593.47;6131977;23;20024;-85
2023/06/06 12:21:16;;;;;;;6.53;4.28;;;;;;;26.10;50.25;101587.88;6144239;23;20084;-86
2023/06/06 12:28:56;;;;;;;9.48;4.55;;;;;;;26.21;50.18;101595.72;6165203;23;20032;-85
2023/06/06 12:31:21;;;;;;;7.18;4.80;;;;;;;26.33;47.87;101589.53;6134794;23;20013;-86
2023/06/06 12:36:25;;;;;;;4.85;3.50;;;;;;;26.22;49.50;101579.78;6162142;23;20221;-84
2023/06/06 12:39:08;;;;;;;8.07;4.32;;;;;;;26.24;49.98;101600.06;6132785;23;20005;-83
2023/06/06 12:41:41;;;;;;;6.78;4.18;;;;;;;26.26;48.89;101581.06;6145468;23;20041;-84
2023/06/06 12:44:11;;;;;;;8.75;3.88;;;;;;;26.23;49.44;101592.72;6148187;23;20017;-85
2023/06/06 12:46:49;;;;;;;10.77;4.00;;;;;;;26.35;48.89;101578.94;6150697;23;20024;-85
2023/06/06 12:49:16;;;;;;;5.90;3.55;;;;;;;26.49;46.69;101577.06;6162017;23;19993;-84
2023/06/06 12:51:47;;;;;;;10.15;3.17;;;;;;;26.52;47.31;101590.72;6162337;23;20055;-85